Time,TemperatureF,DewpointF,PressureIn,WindDirection,WindDirectionDegrees,WindSpeedMPH,WindSpeedGustMPH,Humidity,HourlyPrecipIn,Conditions,Clouds,dailyrainin,SoftwareType,DateUTC
2013-01-08 11:31:00,53.7,38.4,17.69,South,188,0.0,0.0,56,0.00,,,0.00,Wunderground v.1.15,2013-01-08 17:31:00,
2013-01-08 11:37:00,53.4,38.5,17.69,South,174,0.0,1.0,57,0.00,,,0.00,Wunderground v.1.15,2013-01-08 17:37:00,
2013-01-08 11:42:00,53.4,39.0,17.69,ESE,117,0.0,1.0,58,0.00,,,0.00,Wunderground v.1.15,2013-01-08 17:42:00,
2013-01-08 11:47:00,53.4,39.4,17.69,South,173,0.0,4.0,59,0.00,,,0.00,Wunderground v.1.15,2013-01-08 17:47:00,
2013-01-08 11:52:00,54.1,39.6,17.69,SE,140,0.0,1.0,58,0.00,,,0.00,Wunderground v.1.15,2013-01-08 17:52:00,
2013-01-08 11:57:00,54.4,39.5,17.69,South,179,0.0,3.0,57,0.00,,,0.00,Wunderground v.1.15,2013-01-08 17:57:00,
2013-01-08 12:02:00,54.3,39.4,16.97,SSE,167,0.0,3.0,57,0.00,,,0.00,Wunderground v.1.15,2013-01-08 18:02:00,
2013-01-08 12:07:00,54.4,39.5,16.97,East,96,1.0,4.0,57,0.00,,,0.00,Wunderground v.1.15,2013-01-08 18:07:00,
2013-01-08 12:12:00,55.0,40.0,16.97,SE,141,0.0,4.0,57,0.00,,,0.00,Wunderground v.1.15,2013-01-08 18:12:00,
2013-01-08 12:17:00,55.7,40.2,16.97,SSE,167,0.0,4.0,56,0.00,,,0.00,Wunderground v.1.15,2013-01-08 18:17:00,
2013-01-08 12:22:00,56.3,41.3,16.97,SE,134,0.0,1.0,57,0.00,,,0.00,Wunderground v.1.15,2013-01-08 18:22:00,
2013-01-08 12:27:00,56.9,40.9,16.97,South,191,1.0,5.0,55,0.00,,,0.00,Wunderground v.1.15,2013-01-08 18:27:00,
2013-01-08 12:32:00,57.2,41.2,16.97,SSE,159,1.0,5.0,55,0.00,,,0.00,Wunderground v.1.15,2013-01-08 18:32:00,
2013-01-08 12:37:00,57.3,41.3,16.97,SSE,163,0.0,5.0,55,0.00,,,0.00,Wunderground v.1.15,2013-01-08 18:37:00,
2013-01-08 12:42:00,57.5,41.0,16.97,SE,130,2.0,2.0,54,0.00,,,0.00,Wunderground v.1.15,2013-01-08 18:42:00,
2013-01-08 12:47:00,57.9,41.8,16.97,SSE,162,0.0,3.0,55,0.00,,,0.00,Wunderground v.1.15,2013-01-08 18:47:00,
2013-01-08 12:52:00,57.9,41.3,16.97,South,180,0.0,5.0,54,0.00,,,0.00,Wunderground v.1.15,2013-01-08 18:52:00,
2013-01-08 12:58:00,58.0,41.4,16.15,SE,143,0.0,5.0,54,0.00,,,0.00,Wunderground v.1.15,2013-01-08 18:58:00,
2013-01-08 13:02:00,58.2,41.6,16.15,SE,137,1.0,3.0,54,0.00,,,0.00,Wunderground v.1.15,2013-01-08 19:02:00,
2013-01-08 13:07:00,58.0,41.4,16.15,SE,128,1.0,4.0,54,0.00,,,0.00,Wunderground v.1.15,2013-01-08 19:07:00,
2013-01-08 13:13:00,57.6,41.1,16.15,SSE,149,0.0,5.0,54,0.00,,,0.00,Wunderground v.1.15,2013-01-08 19:13:00,
2013-01-08 13:18:00,57.5,41.4,16.15,SSE,168,1.0,5.0,55,0.00,,,0.00,Wunderground v.1.15,2013-01-08 19:18:00,
2013-01-08 13:23:00,57.3,41.3,16.15,South,178,0.0,1.0,55,0.00,,,0.00,Wunderground v.1.15,2013-01-08 19:23:00,
2013-01-08 13:28:00,57.3,41.3,16.15,SSE,160,0.0,3.0,55,0.00,,,0.00,Wunderground v.1.15,2013-01-08 19:28:00,
2013-01-08 13:33:00,57.5,41.9,16.15,SE,142,0.0,3.0,56,0.00,,,0.00,Wunderground v.1.15,2013-01-08 19:33:00,
2013-01-08 13:38:00,57.7,41.6,16.15,South,170,0.0,3.0,55,0.00,,,0.00,Wunderground v.1.15,2013-01-08 19:38:00,
2013-01-08 13:43:00,58.1,42.0,16.15,WNW,293,0.0,3.0,55,0.00,,,0.00,Wunderground v.1.15,2013-01-08 19:43:00,
2013-01-08 13:48:00,58.6,42.5,16.15,SSE,150,0.0,3.0,55,0.00,,,0.00,Wunderground v.1.15,2013-01-08 19:48:00,
2013-01-08 13:53:00,58.9,42.8,16.15,ESE,117,0.0,2.0,55,0.00,,,0.00,Wunderground v.1.15,2013-01-08 19:53:00,
2013-01-08 13:58:00,58.9,42.8,16.15,SSE,150,0.0,3.0,55,0.00,,,0.00,Wunderground v.1.15,2013-01-08 19:58:00,
2013-01-08 14:03:00,58.6,42.9,16.15,NW,311,3.0,3.0,56,0.00,,,0.00,Wunderground v.1.15,2013-01-08 20:03:00,
2013-01-08 14:08:00,58.5,42.8,16.15,SE,146,1.0,6.0,56,0.00,,,0.00,Wunderground v.1.15,2013-01-08 20:08:00,
2013-01-08 14:13:00,58.4,42.8,16.15,NE,55,0.0,2.0,56,0.00,,,0.00,Wunderground v.1.15,2013-01-08 20:13:00,
2013-01-08 14:18:00,58.5,42.8,16.15,East,80,0.0,2.0,56,0.00,,,0.00,Wunderground v.1.15,2013-01-08 20:18:00,
2013-01-08 14:23:00,58.4,42.8,16.15,East,86,0.0,2.0,56,0.00,,,0.00,Wunderground v.1.15,2013-01-08 20:23:00,
2013-01-08 14:28:00,58.5,42.4,16.15,North,360,0.0,2.0,55,0.00,,,0.00,Wunderground v.1.15,2013-01-08 20:28:00,
2013-01-08 14:33:00,58.5,42.4,16.15,SSE,165,0.0,3.0,55,0.00,,,0.00,Wunderground v.1.15,2013-01-08 20:33:00,
2013-01-08 14:38:00,58.5,42.8,16.15,SSE,160,0.0,3.0,56,0.00,,,0.00,Wunderground v.1.15,2013-01-08 20:38:00,
2013-01-08 14:43:00,58.5,42.8,17.39,South,172,1.0,1.0,56,0.00,,,0.00,Wunderground v.1.15,2013-01-08 20:43:00,
2013-01-08 14:48:00,58.6,42.9,18.24,South,169,0.0,6.0,56,0.00,,,0.00,Wunderground v.1.15,2013-01-08 20:48:00,
2013-01-08 14:53:00,58.5,42.8,18.24,SSE,167,0.0,4.0,56,0.00,,,0.00,Wunderground v.1.15,2013-01-08 20:53:00,
2013-01-08 14:58:00,58.4,42.8,18.24,SSE,156,0.0,5.0,56,0.00,,,0.00,Wunderground v.1.15,2013-01-08 20:58:00,
2013-01-08 15:03:00,58.2,42.6,18.24,South,186,0.0,1.0,56,0.00,,,0.00,Wunderground v.1.15,2013-01-08 21:03:00,
2013-01-08 15:08:00,58.0,42.4,18.24,SSE,161,0.0,5.0,56,0.00,,,0.00,Wunderground v.1.15,2013-01-08 21:08:00,
2013-01-08 15:13:00,57.9,42.8,18.24,South,189,2.0,3.0,57,0.00,,,0.00,Wunderground v.1.15,2013-01-08 21:13:00,
2013-01-08 15:19:00,57.8,42.7,18.24,SSE,163,0.0,7.0,57,0.00,,,0.00,Wunderground v.1.15,2013-01-08 21:19:00,
2013-01-08 15:23:00,57.7,42.6,18.24,SSW,202,0.0,2.0,57,0.00,,,0.00,Wunderground v.1.15,2013-01-08 21:23:00,
2013-01-08 15:28:00,57.6,42.5,18.24,SSE,153,0.0,2.0,57,0.00,,,0.00,Wunderground v.1.15,2013-01-08 21:28:00,
2013-01-08 15:34:00,57.5,42.4,18.24,SSE,161,0.0,3.0,57,0.00,,,0.00,Wunderground v.1.15,2013-01-08 21:34:00,
2013-01-08 15:39:00,57.2,42.1,18.24,SE,142,0.0,3.0,57,0.00,,,0.00,Wunderground v.1.15,2013-01-08 21:39:00,
2013-01-08 15:44:00,57.0,42.4,18.24,SSE,163,0.0,1.0,58,0.00,,,0.00,Wunderground v.1.15,2013-01-08 21:44:00,
2013-01-08 15:49:00,56.8,42.2,18.24,East,86,0.0,1.0,58,0.00,,,0.00,Wunderground v.1.15,2013-01-08 21:49:00,
2013-01-08 15:54:00,56.5,41.9,18.24,WNW,303,0.0,1.0,58,0.00,,,0.00,Wunderground v.1.15,2013-01-08 21:54:00,
2013-01-08 15:59:00,56.3,42.1,16.66,SE,146,0.0,1.0,59,0.00,,,0.00,Wunderground v.1.15,2013-01-08 21:59:00,
2013-01-08 16:04:00,56.1,42.0,16.66,East,84,0.0,1.0,59,0.00,,,0.00,Wunderground v.1.15,2013-01-08 22:04:00,
2013-01-08 16:09:00,55.9,41.8,16.66,ENE,63,0.0,1.0,59,0.00,,,0.00,Wunderground v.1.15,2013-01-08 22:09:00,
2013-01-08 16:14:00,55.9,41.8,16.66,NW,304,0.0,1.0,59,0.00,,,0.00,Wunderground v.1.15,2013-01-08 22:14:00,
2013-01-08 16:19:00,55.8,41.7,16.66,ESE,121,0.0,1.0,59,0.00,,,0.00,Wunderground v.1.15,2013-01-08 22:19:00,
2013-01-08 16:24:00,55.6,41.5,16.66,SSE,153,0.0,2.0,59,0.00,,,0.00,Wunderground v.1.15,2013-01-08 22:24:00,
2013-01-08 16:29:00,55.5,41.4,16.66,WSW,246,0.0,2.0,59,0.00,,,0.00,Wunderground v.1.15,2013-01-08 22:29:00,
2013-01-08 16:34:00,55.4,41.7,16.66,SSW,194,0.0,1.0,60,0.00,,,0.00,Wunderground v.1.15,2013-01-08 22:34:00,
2013-01-08 16:39:00,55.3,41.6,16.66,SSW,207,0.0,1.0,60,0.00,,,0.00,Wunderground v.1.15,2013-01-08 22:39:00,
2013-01-08 16:44:00,55.1,41.5,16.66,SE,146,1.0,1.0,60,0.00,,,0.00,Wunderground v.1.15,2013-01-08 22:44:00,
2013-01-08 16:49:00,54.8,42.9,16.66,SSE,158,0.0,2.0,64,0.00,,,0.00,Wunderground v.1.15,2013-01-08 22:49:00,
2013-01-08 16:55:00,54.2,43.1,16.66,SSE,155,1.0,1.0,66,0.00,,,0.00,Wunderground v.1.15,2013-01-08 22:55:00,
2013-01-08 17:00:00,53.8,43.5,16.66,WSW,256,0.0,0.0,68,0.00,,,0.01,Wunderground v.1.15,2013-01-08 23:00:00,
2013-01-08 17:05:00,53.5,44.0,16.66,WSW,256,0.0,0.0,70,0.00,,,0.01,Wunderground v.1.15,2013-01-08 23:05:00,
2013-01-08 17:10:00,53.3,44.1,16.66,WSW,256,0.0,0.0,71,0.20,,,0.03,Wunderground v.1.15,2013-01-08 23:10:00,
2013-01-08 17:15:00,53.0,44.2,16.66,WSW,256,0.0,0.0,72,0.10,,,0.03,Wunderground v.1.15,2013-01-08 23:15:00,
2013-01-08 17:20:00,52.7,44.3,17.19,WSW,256,0.0,0.0,73,0.27,,,0.05,Wunderground v.1.15,2013-01-08 23:20:00,
2013-01-08 17:25:00,52.5,44.4,17.21,WSW,256,0.0,0.0,74,0.24,,,0.07,Wunderground v.1.15,2013-01-08 23:25:00,
2013-01-08 17:30:00,52.3,44.6,17.21,WSW,256,0.0,0.0,75,0.10,,,0.07,Wunderground v.1.15,2013-01-08 23:30:00,
2013-01-08 17:35:00,51.9,44.6,16.52,WSW,256,0.0,0.0,76,0.05,,,0.07,Wunderground v.1.15,2013-01-08 23:35:00,
2013-01-08 17:40:00,51.5,44.5,16.52,WSW,256,0.0,0.0,77,0.04,,,0.08,Wunderground v.1.15,2013-01-08 23:40:00,
2013-01-08 17:45:00,51.2,44.2,16.52,WSW,256,0.0,0.0,77,0.04,,,0.08,Wunderground v.1.15,2013-01-08 23:45:00,
2013-01-08 17:50:00,50.9,44.3,16.52,WSW,256,0.0,0.0,78,0.04,,,0.08,Wunderground v.1.15,2013-01-08 23:50:00,
2013-01-08 17:55:00,50.6,44.3,16.52,WSW,256,0.0,0.0,79,0.04,,,0.08,Wunderground v.1.15,2013-01-08 23:55:00,
2013-01-08 18:00:00,50.4,44.1,16.52,WSW,256,0.0,0.0,79,0.00,,,0.08,Wunderground v.1.15,2013-01-09 00:00:00,
2013-01-08 18:05:00,50.1,44.2,16.52,WSW,256,0.0,0.0,80,0.00,,,0.09,Wunderground v.1.15,2013-01-09 00:05:00,
2013-01-08 18:10:00,49.9,44.0,16.52,WSW,256,0.0,0.0,80,0.00,,,0.09,Wunderground v.1.15,2013-01-09 00:10:00,
2013-01-08 18:15:00,49.7,44.1,16.52,WSW,256,0.0,0.0,81,0.00,,,0.09,Wunderground v.1.15,2013-01-09 00:15:00,
2013-01-08 18:20:00,49.6,44.0,16.52,WSW,256,0.0,0.0,81,0.00,,,0.09,Wunderground v.1.15,2013-01-09 00:20:00,
2013-01-08 18:25:00,49.4,43.8,16.52,WSW,256,0.0,0.0,81,0.00,,,0.09,Wunderground v.1.15,2013-01-09 00:25:00,
2013-01-08 18:30:00,49.2,43.9,16.52,WSW,256,0.0,0.0,82,0.00,,,0.09,Wunderground v.1.15,2013-01-09 00:30:00,
2013-01-08 18:35:00,49.2,43.9,16.52,WSW,256,0.0,0.0,82,0.00,,,0.10,Wunderground v.1.15,2013-01-09 00:35:00,
2013-01-08 18:40:00,49.0,44.1,16.52,WSW,256,0.0,0.0,83,0.12,,,0.11,Wunderground v.1.15,2013-01-09 00:40:00,
2013-01-08 18:45:00,48.9,44.0,16.52,WSW,256,0.0,0.0,83,0.13,,,0.12,Wunderground v.1.15,2013-01-09 00:45:00,
2013-01-08 18:50:00,48.8,43.9,16.52,WSW,256,0.0,0.0,83,0.15,,,0.13,Wunderground v.1.15,2013-01-09 00:50:00,
2013-01-08 18:55:00,48.7,44.1,16.52,WSW,256,0.0,0.0,84,0.08,,,0.14,Wunderground v.1.15,2013-01-09 00:55:00,
2013-01-08 19:00:00,48.5,43.9,16.52,WSW,256,0.0,0.0,84,0.13,,,0.15,Wunderground v.1.15,2013-01-09 01:00:00,
2013-01-08 19:05:00,48.4,43.8,16.52,WSW,256,0.0,0.0,84,0.12,,,0.16,Wunderground v.1.15,2013-01-09 01:05:00,
2013-01-08 19:10:00,48.3,44.0,16.52,WSW,256,0.0,0.0,85,0.11,,,0.17,Wunderground v.1.15,2013-01-09 01:10:00,
2013-01-08 19:15:00,48.2,43.9,16.52,WSW,256,0.0,0.0,85,0.08,,,0.18,Wunderground v.1.15,2013-01-09 01:15:00,
2013-01-08 19:20:00,48.1,43.8,16.52,WSW,256,0.0,0.0,85,0.13,,,0.20,Wunderground v.1.15,2013-01-09 01:20:00,
2013-01-08 19:25:00,48.1,43.8,16.52,WSW,256,0.0,0.0,85,0.17,,,0.21,Wunderground v.1.15,2013-01-09 01:25:00,
2013-01-08 19:30:00,48.0,44.0,16.52,WSW,256,0.0,0.0,86,0.13,,,0.22,Wunderground v.1.15,2013-01-09 01:30:00,
2013-01-08 19:35:00,48.0,44.0,16.52,WSW,256,0.0,0.0,86,0.12,,,0.23,Wunderground v.1.15,2013-01-09 01:35:00,
2013-01-08 19:40:00,48.0,44.0,16.87,WSW,256,0.0,0.0,86,0.07,,,0.23,Wunderground v.1.15,2013-01-09 01:40:00,
2013-01-08 19:45:00,47.9,43.9,16.87,WSW,256,0.0,0.0,86,0.04,,,0.23,Wunderground v.1.15,2013-01-09 01:45:00,
2013-01-08 19:50:00,47.9,44.2,16.87,WSW,256,0.0,0.0,87,0.00,,,0.23,Wunderground v.1.15,2013-01-09 01:50:00,
2013-01-08 19:55:00,47.8,44.1,16.87,WSW,256,0.0,0.0,87,0.00,,,0.23,Wunderground v.1.15,2013-01-09 01:55:00,
2013-01-08 20:00:00,47.8,44.1,16.87,WSW,256,0.0,0.0,87,0.00,,,0.23,Wunderground v.1.15,2013-01-09 02:00:00,
2013-01-08 20:05:00,47.7,44.0,16.96,WSW,256,0.0,0.0,87,0.00,,,0.23,Wunderground v.1.15,2013-01-09 02:05:00,
2013-01-08 20:11:00,47.6,43.9,16.96,WSW,256,0.0,0.0,87,0.00,,,0.23,Wunderground v.1.15,2013-01-09 02:11:00,
2013-01-08 20:16:00,47.6,43.9,16.96,WSW,256,0.0,0.0,87,0.00,,,0.23,Wunderground v.1.15,2013-01-09 02:16:00,
2013-01-08 20:21:00,47.5,43.8,16.96,WSW,256,0.0,0.0,87,0.00,,,0.24,Wunderground v.1.15,2013-01-09 02:21:00,
2013-01-08 20:26:00,47.5,44.1,16.96,WSW,256,0.0,0.0,88,0.00,,,0.24,Wunderground v.1.15,2013-01-09 02:26:00,
2013-01-08 20:31:00,47.5,44.1,16.96,WSW,256,0.0,0.0,88,0.00,,,0.24,Wunderground v.1.15,2013-01-09 02:31:00,
2013-01-08 20:36:00,47.5,44.1,17.33,WSW,256,0.0,0.0,88,0.00,,,0.24,Wunderground v.1.15,2013-01-09 02:36:00,
2013-01-08 20:41:00,47.5,44.1,17.33,WSW,256,0.0,0.0,88,0.00,,,0.24,Wunderground v.1.15,2013-01-09 02:41:00,
2013-01-08 20:46:00,47.4,44.0,17.33,WSW,256,0.0,0.0,88,0.00,,,0.24,Wunderground v.1.15,2013-01-09 02:46:00,
2013-01-08 20:51:00,47.4,44.0,17.33,WSW,256,0.0,0.0,88,0.00,,,0.24,Wunderground v.1.15,2013-01-09 02:51:00,
2013-01-08 20:56:00,47.4,44.0,17.33,WSW,256,0.0,0.0,88,0.00,,,0.24,Wunderground v.1.15,2013-01-09 02:56:00,
2013-01-08 21:01:00,47.3,43.9,17.33,WSW,256,0.0,0.0,88,0.00,,,0.24,Wunderground v.1.15,2013-01-09 03:01:00,
2013-01-08 21:06:00,47.3,44.2,17.33,WSW,256,0.0,0.0,89,0.00,,,0.25,Wunderground v.1.15,2013-01-09 03:06:00,
2013-01-08 21:11:00,47.3,44.2,17.33,WSW,256,0.0,0.0,89,0.00,,,0.25,Wunderground v.1.15,2013-01-09 03:11:00,
2013-01-08 21:16:00,47.4,44.3,17.33,WSW,256,0.0,0.0,89,0.00,,,0.25,Wunderground v.1.15,2013-01-09 03:16:00,
2013-01-08 21:21:00,47.3,44.2,17.33,WSW,256,0.0,0.0,89,0.00,,,0.25,Wunderground v.1.15,2013-01-09 03:21:00,
2013-01-08 21:26:00,47.3,44.2,17.33,WSW,256,0.0,0.0,89,0.00,,,0.25,Wunderground v.1.15,2013-01-09 03:26:00,
2013-01-08 21:31:00,47.3,44.2,17.33,WSW,256,0.0,0.0,89,0.00,,,0.25,Wunderground v.1.15,2013-01-09 03:31:00,
2013-01-08 21:36:00,47.3,44.2,17.33,WSW,256,0.0,0.0,89,0.00,,,0.25,Wunderground v.1.15,2013-01-09 03:36:00,
2013-01-08 21:41:00,47.3,44.2,17.33,WSW,256,0.0,0.0,89,0.00,,,0.25,Wunderground v.1.15,2013-01-09 03:41:00,
2013-01-08 21:46:00,47.3,44.5,17.33,WSW,256,0.0,0.0,90,0.00,,,0.25,Wunderground v.1.15,2013-01-09 03:46:00,
2013-01-08 21:51:00,47.3,44.5,17.33,WSW,256,0.0,0.0,90,0.00,,,0.25,Wunderground v.1.15,2013-01-09 03:51:00,
2013-01-08 21:56:00,47.3,44.5,17.33,WSW,256,0.0,0.0,90,0.00,,,0.25,Wunderground v.1.15,2013-01-09 03:56:00,
2013-01-08 22:01:00,47.4,44.6,17.33,WSW,256,0.0,0.0,90,0.00,,,0.25,Wunderground v.1.15,2013-01-09 04:01:00,
2013-01-08 22:06:00,47.4,44.6,18.23,WSW,256,0.0,1.0,90,0.00,,,0.25,Wunderground v.1.15,2013-01-09 04:06:00,
2013-01-08 22:11:00,47.4,44.6,18.23,WSW,256,0.0,0.0,90,0.00,,,0.25,Wunderground v.1.15,2013-01-09 04:11:00,
2013-01-08 22:16:00,47.4,44.6,18.23,WSW,256,0.0,0.0,90,0.00,,,0.25,Wunderground v.1.15,2013-01-09 04:16:00,
2013-01-08 22:21:00,47.4,44.6,18.23,WSW,256,0.0,0.0,90,0.00,,,0.25,Wunderground v.1.15,2013-01-09 04:21:00,
2013-01-08 22:27:00,47.4,44.6,18.23,WSW,256,0.0,0.0,90,0.00,,,0.25,Wunderground v.1.15,2013-01-09 04:27:00,
2013-01-08 22:32:00,47.4,44.9,18.23,WSW,256,0.0,0.0,91,0.00,,,0.25,Wunderground v.1.15,2013-01-09 04:32:00,
2013-01-08 22:37:00,47.4,44.9,18.23,WSW,256,0.0,0.0,91,0.00,,,0.25,Wunderground v.1.15,2013-01-09 04:37:00,
2013-01-08 22:42:00,47.4,44.9,18.23,WSW,256,0.0,0.0,91,0.00,,,0.25,Wunderground v.1.15,2013-01-09 04:42:00,
2013-01-08 22:47:00,47.4,44.9,18.23,WSW,256,0.0,0.0,91,0.00,,,0.25,Wunderground v.1.15,2013-01-09 04:47:00,
2013-01-08 22:52:00,47.4,44.9,18.23,WSW,256,0.0,0.0,91,0.00,,,0.25,Wunderground v.1.15,2013-01-09 04:52:00,
2013-01-08 22:57:00,47.4,44.9,18.23,WSW,256,0.0,0.0,91,0.00,,,0.25,Wunderground v.1.15,2013-01-09 04:57:00,
2013-01-08 23:00:00,47.4,44.9,18.23,WSW,256,0.0,0.0,91,0.00,,,0.25,Wunderground v.1.15,2013-01-09 05:00:00,
2013-01-08 23:02:00,47.3,44.8,18.23,WSW,256,0.0,0.0,91,0.00,,,0.25,Wunderground v.1.15,2013-01-09 05:02:00,
2013-01-08 23:03:00,47.3,44.8,18.23,WSW,256,0.0,0.0,91,0.00,,,0.25,Wunderground v.1.15,2013-01-09 05:03:00,
2013-01-08 23:08:00,47.3,44.8,18.23,WSW,256,0.0,0.0,91,0.00,,,0.25,Wunderground v.1.15,2013-01-09 05:08:00,
2013-01-08 23:13:00,47.3,44.8,18.23,WSW,256,0.0,0.0,91,0.00,,,0.25,Wunderground v.1.15,2013-01-09 05:13:00,
2013-01-08 23:18:00,47.3,44.8,18.23,WSW,256,0.0,0.0,91,0.00,,,0.25,Wunderground v.1.15,2013-01-09 05:18:00,
2013-01-08 23:23:00,47.3,44.8,18.23,WSW,256,0.0,0.0,91,0.00,,,0.25,Wunderground v.1.15,2013-01-09 05:23:00,
2013-01-08 23:28:00,47.3,44.8,18.23,WSW,256,0.0,0.0,91,0.00,,,0.26,Wunderground v.1.15,2013-01-09 05:28:00,
2013-01-08 23:33:00,47.2,44.7,16.72,WSW,256,0.0,0.0,91,0.00,,,0.26,Wunderground v.1.15,2013-01-09 05:33:00,
2013-01-08 23:38:00,47.2,44.7,16.72,WSW,256,0.0,0.0,91,0.07,,,0.27,Wunderground v.1.15,2013-01-09 05:38:00,
2013-01-08 23:43:00,47.3,44.8,16.72,WSW,256,0.0,0.0,91,0.06,,,0.27,Wunderground v.1.15,2013-01-09 05:43:00,
2013-01-08 23:48:00,47.3,44.8,16.72,WSW,256,0.0,0.0,91,0.04,,,0.27,Wunderground v.1.15,2013-01-09 05:48:00,
2013-01-08 23:53:00,47.3,44.8,16.72,WSW,256,0.0,0.0,91,0.00,,,0.27,Wunderground v.1.15,2013-01-09 05:53:00,
2013-01-08 23:58:00,47.3,44.8,16.72,WSW,256,0.0,0.0,91,0.00,,,0.00,Wunderground v.1.15,2013-01-09 05:58:00,